createdAt,value
2023-05-01T00:03:57.701Z,100.00
2023-05-01T00:08:01.080Z,100.00
2023-05-01T00:12:09.506Z,100.00
2023-05-01T00:16:15.073Z,100.00
2023-05-01T00:20:19.512Z,100.00
2023-05-01T00:24:22.391Z,100.00
2023-05-01T00:28:25.485Z,100.00
2023-05-01T00:32:28.574Z,100.00
2023-05-01T00:36:33.429Z,100.00
2023-05-01T00:40:43.770Z,100.00
2023-05-01T00:44:46.782Z,100.00
2023-05-01T00:48:49.543Z,100.00
2023-05-01T00:52:54.372Z,100.00
2023-05-01T00:56:58.536Z,100.00
2023-05-01T01:01:02.567Z,100.00
2023-05-01T01:05:06.516Z,100.00
2023-05-01T01:09:20.938Z,100.00
2023-05-01T01:13:30.533Z,100.00
2023-05-01T01:17:43.762Z,100.00
2023-05-01T01:21:50.548Z,100.00
2023-05-01T01:26:14.606Z,100.00
2023-05-01T01:30:43.988Z,100.00
2023-05-01T01:34:53.699Z,100.00
2023-05-01T01:39:04.349Z,100.00
2023-05-01T01:43:09.674Z,100.00
2023-05-01T01:47:15.727Z,100.00
2023-05-01T01:51:23.768Z,100.00
2023-05-01T01:55:30.774Z,100.00
2023-05-01T01:59:36.598Z,100.00
2023-05-01T02:03:41.276Z,100.00
2023-05-01T02:07:49.790Z,100.00
2023-05-01T02:11:55.198Z,100.00
2023-05-01T02:16:00.236Z,100.00
2023-05-01T02:20:05.737Z,100.00
2023-05-01T02:24:10.839Z,100.00
2023-05-01T02:28:16.279Z,100.00
2023-05-01T02:32:19.145Z,100.00
2023-05-01T02:36:23.480Z,100.00
2023-05-01T02:40:28.940Z,100.00
2023-05-01T02:44:40.080Z,100.00
2023-05-01T02:48:44.472Z,100.00
2023-05-01T02:52:48.564Z,100.00
2023-05-01T02:56:54.086Z,100.00
2023-05-01T03:00:57.273Z,100.00
2023-05-01T03:05:00.172Z,100.00
2023-05-01T03:09:03.235Z,100.00
2023-05-01T03:13:07.484Z,100.00
2023-05-01T03:17:10.403Z,100.00
2023-05-01T03:21:13.843Z,100.00
2023-05-01T03:25:19.407Z,100.00
2023-05-01T03:29:24.044Z,100.00
2023-05-01T03:33:28.178Z,100.00
2023-05-01T03:37:34.093Z,100.00
2023-05-01T03:41:37.732Z,100.00
2023-05-01T03:45:44.812Z,100.00
2023-05-01T03:49:48.292Z,100.00
2023-05-01T03:53:52.677Z,100.00
2023-05-01T03:57:56.007Z,100.00
2023-05-01T04:02:00.598Z,100.00
2023-05-01T04:06:05.984Z,100.00
2023-05-01T04:10:10.124Z,100.00
2023-05-01T04:14:13.111Z,96.89
2023-05-01T04:18:17.780Z,90.30
2023-05-01T04:22:20.858Z,81.22
2023-05-01T04:26:24.135Z,73.19
2023-05-01T04:30:27.627Z,62.73
2023-05-01T04:34:32.092Z,52.86
2023-05-01T04:38:37.256Z,44.50
2023-05-01T04:42:40.016Z,42.98
2023-05-01T04:46:42.634Z,40.60
2023-05-01T04:50:47.250Z,36.35
2023-05-01T04:54:50.028Z,32.93
2023-05-01T04:58:52.692Z,32.18
2023-05-01T05:02:55.709Z,29.63
2023-05-01T05:07:00.181Z,27.25
2023-05-01T05:11:03.165Z,26.53
2023-05-01T05:15:06.409Z,23.96
2023-05-01T05:19:09.238Z,23.22
2023-05-01T05:23:13.743Z,22.03
2023-05-01T05:27:16.590Z,21.70
2023-05-01T05:31:19.313Z,22.03
2023-05-01T05:35:22.479Z,21.41
2023-05-01T05:39:26.816Z,20.92
2023-05-01T05:43:30.237Z,18.98
2023-05-01T05:47:34.048Z,19.75
2023-05-01T05:51:39.188Z,18.25
2023-05-01T05:55:45.624Z,17.42
2023-05-01T05:59:48.965Z,19.29
2023-05-01T06:03:52.191Z,18.59
2023-05-01T06:07:56.499Z,16.92
2023-05-01T06:12:03.769Z,17.98
2023-05-01T06:16:08.749Z,17.40
2023-05-01T06:20:14.354Z,16.33
2023-05-01T06:24:17.342Z,17.99
2023-05-01T06:28:22.774Z,17.05
2023-05-01T06:32:26.445Z,17.38
2023-05-01T06:36:29.652Z,17.09
2023-05-01T06:40:35.012Z,18.12
2023-05-01T06:44:42.741Z,17.70
2023-05-01T06:48:45.767Z,18.30
2023-05-01T06:52:48.599Z,19.54
2023-05-01T06:56:53.322Z,17.42
2023-05-01T07:00:57.895Z,18.06
2023-05-01T07:05:06.163Z,15.74
2023-05-01T07:09:09.773Z,15.56
2023-05-01T07:13:13.516Z,16.55
2023-05-01T07:17:18.827Z,16.55
2023-05-01T07:21:22.270Z,16.02
2023-05-01T07:25:25.432Z,16.89
2023-05-01T07:29:28.334Z,15.95
2023-05-01T07:33:32.903Z,16.36
2023-05-01T07:37:35.730Z,16.33
2023-05-01T07:41:38.781Z,15.51
2023-05-01T07:45:43.216Z,16.06
2023-05-01T07:49:47.847Z,14.69
2023-05-01T07:53:50.985Z,17.29
2023-05-01T07:57:53.950Z,16.97
2023-05-01T08:01:57.673Z,16.21
2023-05-01T08:06:02.130Z,15.23
2023-05-01T08:10:05.520Z,16.41
2023-05-01T08:14:08.736Z,17.36
2023-05-01T08:18:12.418Z,16.93
2023-05-01T08:22:16.911Z,17.29
2023-05-01T08:26:22.387Z,15.42
2023-05-01T08:30:26.662Z,16.29
2023-05-01T08:34:29.468Z,16.31
2023-05-01T08:38:33.853Z,16.32
2023-05-01T08:42:37.679Z,15.30
2023-05-01T08:46:48.596Z,16.78
2023-05-01T08:50:52.355Z,16.41
2023-05-01T08:55:01.563Z,17.08
2023-05-01T08:59:06.641Z,18.29
2023-05-01T09:03:15.892Z,17.12
2023-05-01T09:07:19.180Z,18.19
2023-05-01T09:11:26.243Z,16.32
2023-05-01T09:15:31.569Z,15.98
2023-05-01T09:19:35.605Z,16.86
2023-05-01T09:23:38.967Z,16.65
2023-05-01T09:27:45.709Z,16.42
2023-05-01T09:31:48.893Z,16.78
2023-05-01T09:35:53.873Z,16.55
2023-05-01T09:40:07.701Z,17.52
2023-05-01T09:44:21.221Z,17.25
2023-05-01T09:48:25.011Z,18.40
2023-05-01T09:52:29.173Z,19.97
2023-05-01T09:56:34.468Z,19.02
2023-05-01T10:00:49.231Z,23.04
2023-05-01T10:04:59.320Z,21.13
2023-05-01T10:09:02.310Z,20.81
2023-05-01T10:13:15.555Z,22.53
2023-05-01T10:17:23.014Z,23.09
2023-05-01T10:21:25.839Z,20.10
2023-05-01T10:25:30.887Z,19.52
2023-05-01T10:29:37.012Z,20.88
2023-05-01T10:33:42.330Z,21.66
2023-05-01T10:37:51.141Z,21.61
2023-05-01T10:42:11.205Z,24.92
2023-05-01T10:46:31.240Z,22.13
2023-05-01T10:50:36.213Z,24.01
2023-05-01T10:54:40.950Z,20.63
2023-05-01T10:59:06.247Z,21.29
2023-05-01T11:03:36.843Z,22.31
2023-05-01T11:07:41.090Z,22.00
2023-05-01T11:11:53.199Z,20.62
2023-05-01T11:15:56.690Z,23.29
2023-05-01T11:20:01.710Z,21.90
2023-05-01T11:24:06.909Z,21.28
2023-05-01T11:28:11.894Z,22.40
2023-05-01T11:32:25.378Z,21.97
2023-05-01T11:36:29.269Z,22.24
2023-05-01T11:40:35.359Z,23.77
2023-05-01T11:44:41.630Z,22.34
2023-05-01T11:48:50.833Z,23.70
2023-05-01T11:52:54.055Z,21.64
2023-05-01T11:57:02.106Z,21.55
2023-05-01T12:01:07.548Z,20.52
2023-05-01T12:05:17.482Z,21.61
2023-05-01T12:09:22.102Z,20.62
2023-05-01T12:13:27.220Z,21.33
2023-05-01T12:17:30.703Z,20.63
2023-05-01T12:21:34.104Z,21.00
2023-05-01T12:25:37.880Z,21.65
2023-05-01T12:29:47.540Z,21.83
2023-05-01T12:33:57.287Z,22.58
2023-05-01T12:38:01.225Z,23.25
2023-05-01T12:42:05.205Z,23.87
2023-05-01T12:46:16.910Z,24.44
2023-05-01T12:50:20.787Z,24.74
2023-05-01T12:54:24.973Z,23.98
2023-05-01T12:58:38.454Z,26.43
2023-05-01T13:02:44.159Z,25.44
2023-05-01T13:06:47.696Z,25.18
2023-05-01T13:10:51.668Z,24.50
2023-05-01T13:14:58.747Z,26.43
2023-05-01T13:19:06.777Z,25.46
2023-05-01T13:23:13.975Z,25.82
2023-05-01T13:27:17.062Z,25.20
2023-05-01T13:31:21.514Z,24.28
2023-05-01T13:35:27.419Z,23.91
2023-05-01T13:39:30.792Z,22.64
2023-05-01T13:43:33.743Z,24.79
2023-05-01T13:47:40.916Z,25.27
2023-05-01T13:51:47.683Z,24.50
2023-05-01T13:55:50.899Z,26.05
2023-05-01T13:59:53.963Z,25.70
2023-05-01T14:04:00.564Z,25.22
2023-05-01T14:08:05.749Z,26.16
2023-05-01T14:12:14.164Z,26.34
2023-05-01T14:16:28.609Z,26.08
2023-05-01T14:20:31.531Z,26.04
2023-05-01T14:24:37.793Z,25.75
2023-05-01T14:28:44.796Z,28.08
2023-05-01T14:32:48.888Z,26.25
2023-05-01T14:36:57.233Z,26.12
2023-05-01T14:41:02.333Z,25.54
2023-05-01T14:45:08.380Z,26.07
2023-05-01T14:49:17.672Z,26.16
2023-05-01T14:53:21.489Z,28.10
2023-05-01T14:57:28.678Z,27.29
2023-05-01T15:01:33.054Z,27.05
2023-05-01T15:05:38.646Z,26.75
2023-05-01T15:09:48.507Z,26.86
2023-05-01T15:14:02.616Z,26.71
2023-05-01T15:18:05.899Z,28.16
2023-05-01T15:22:08.974Z,27.76
2023-05-01T15:26:15.938Z,27.97
2023-05-01T15:30:24.035Z,27.45
2023-05-01T15:34:27.814Z,28.13
2023-05-01T15:38:31.246Z,27.37
2023-05-01T15:42:34.487Z,29.28
2023-05-01T15:46:39.305Z,28.04
2023-05-01T15:50:42.947Z,28.52
2023-05-01T15:54:47.748Z,29.46
2023-05-01T15:58:51.276Z,30.40
2023-05-01T16:02:57.089Z,29.05
2023-05-01T16:07:03.894Z,29.80
2023-05-01T16:11:08.709Z,29.67
2023-05-01T16:15:13.985Z,30.74
2023-05-01T16:19:22.139Z,29.89
2023-05-01T16:23:27.367Z,31.37
2023-05-01T16:27:30.602Z,31.13
2023-05-01T16:31:39.492Z,31.82
2023-05-01T16:35:44.677Z,32.24
2023-05-01T16:39:49.011Z,32.83
2023-05-01T16:43:52.895Z,33.08
2023-05-01T16:47:58.602Z,33.40
2023-05-01T16:52:04.386Z,33.02
2023-05-01T16:56:10.746Z,33.64
2023-05-01T17:00:16.349Z,33.85
2023-05-01T17:04:19.847Z,35.10
2023-05-01T17:08:24.976Z,36.04
2023-05-01T17:12:29.686Z,37.51
2023-05-01T17:16:33.625Z,37.18
2023-05-01T17:20:36.684Z,36.96
2023-05-01T17:24:41.604Z,38.79
2023-05-01T17:28:45.562Z,39.93
2023-05-01T17:32:50.635Z,40.15
2023-05-01T17:36:56.557Z,43.42
2023-05-01T17:41:03.420Z,43.22
2023-05-01T17:45:07.926Z,44.29
2023-05-01T17:49:11.193Z,45.34
2023-05-01T17:53:14.163Z,46.57
2023-05-01T17:57:18.096Z,48.24
2023-05-01T18:01:21.565Z,47.77
2023-05-01T18:05:25.291Z,48.19
2023-05-01T18:09:27.956Z,49.88
2023-05-01T18:13:38.430Z,51.89
2023-05-01T18:17:41.776Z,52.33
2023-05-01T18:21:44.865Z,52.89
2023-05-01T18:25:47.729Z,54.42
2023-05-01T18:29:53.140Z,52.99
2023-05-01T18:33:56.498Z,53.56
2023-05-01T18:37:59.544Z,55.55
2023-05-01T18:42:03.911Z,58.88
2023-05-01T18:46:08.888Z,57.84
2023-05-01T18:50:13.518Z,58.56
2023-05-01T18:54:17.322Z,59.72
2023-05-01T18:58:20.204Z,59.08
2023-05-01T19:02:24.564Z,57.38
2023-05-01T19:06:27.821Z,56.92
2023-05-01T19:10:30.870Z,57.62
2023-05-01T19:14:33.667Z,60.11
2023-05-01T19:18:39.210Z,58.15
2023-05-01T19:22:42.428Z,56.32
2023-05-01T19:26:45.638Z,55.43
2023-05-01T19:30:48.990Z,55.25
2023-05-01T19:34:53.506Z,57.06
2023-05-01T19:38:56.418Z,58.71
2023-05-01T19:42:59.301Z,58.55
2023-05-01T19:47:02.193Z,59.22
2023-05-01T19:51:06.645Z,60.25
2023-05-01T19:55:11.132Z,61.99
2023-05-01T19:59:14.256Z,61.51
2023-05-01T20:03:17.625Z,62.64
2023-05-01T20:07:22.287Z,65.43
2023-05-01T20:11:25.503Z,64.72
2023-05-01T20:15:28.463Z,65.61
2023-05-01T20:19:31.804Z,65.05
2023-05-01T20:23:36.395Z,66.07
2023-05-01T20:27:39.656Z,65.44
2023-05-01T20:31:43.048Z,66.18
2023-05-01T20:35:46.447Z,66.12
2023-05-01T20:39:50.664Z,63.35
2023-05-01T20:43:53.179Z,63.06
2023-05-01T20:47:56.353Z,63.65
2023-05-01T20:51:59.395Z,63.59
2023-05-01T20:56:03.518Z,65.30
2023-05-01T21:00:08.016Z,66.66
2023-05-01T21:04:11.207Z,67.40
2023-05-01T21:08:13.920Z,68.82
2023-05-01T21:12:18.295Z,68.26
2023-05-01T21:16:23.139Z,67.79
2023-05-01T21:20:32.083Z,69.14
2023-05-01T21:24:36.675Z,69.05
2023-05-01T21:28:40.980Z,70.97
2023-05-01T21:32:44.096Z,70.31
2023-05-01T21:36:47.282Z,70.83
2023-05-01T21:40:50.708Z,69.81
2023-05-01T21:44:55.355Z,69.86
2023-05-01T21:48:58.669Z,70.10
2023-05-01T21:53:01.775Z,67.98
2023-05-01T21:57:08.083Z,67.66
2023-05-01T22:01:14.640Z,67.79
2023-05-01T22:05:26.517Z,68.80
2023-05-01T22:09:30.068Z,69.54
2023-05-01T22:13:34.481Z,70.01
2023-05-01T22:17:39.342Z,69.33
2023-05-01T22:21:43.099Z,69.31
2023-05-01T22:25:46.593Z,69.50
2023-05-01T22:29:49.398Z,70.83
2023-05-01T22:33:55.669Z,72.03
2023-05-01T22:37:59.380Z,72.79
2023-05-01T22:42:02.344Z,73.64
2023-05-01T22:46:06.117Z,73.47
2023-05-01T22:50:11.793Z,74.64
2023-05-01T22:54:15.069Z,76.04
2023-05-01T22:58:18.234Z,74.96
2023-05-01T23:02:21.062Z,74.50
2023-05-01T23:06:25.612Z,74.62
2023-05-01T23:10:30.745Z,74.84
2023-05-01T23:14:35.304Z,75.14
2023-05-01T23:18:41.740Z,76.47
2023-05-01T23:22:46.483Z,76.09
2023-05-01T23:26:49.610Z,75.21
2023-05-01T23:30:56.725Z,74.30
2023-05-01T23:35:05.032Z,74.01
2023-05-01T23:39:09.561Z,74.15
2023-05-01T23:43:13.720Z,74.75
2023-05-01T23:47:16.801Z,74.49
2023-05-01T23:51:19.844Z,74.92
2023-05-01T23:55:24.234Z,74.90
2023-05-01T23:59:26.965Z,74.79
